sensor_id;sensor_type;location;lat;lon;timestamp;P1;durP1;ratioP1;P2;durP2;ratioP2
3627;SDS011;1830;49.000;12.074;2022-09-27T00:01:16;5.10;;;3.90;;
3627;SDS011;1830;49.000;12.074;2022-09-27T00:03:43;7.43;;;3.80;;
3627;SDS011;1830;49.000;12.074;2022-09-27T00:06:11;4.03;;;3.53;;
3627;SDS011;1830;49.000;12.074;2022-09-27T00:08:40;4.47;;;3.77;;
3627;SDS011;1830;49.000;12.074;2022-09-27T00:11:09;11.50;;;4.03;;
3627;SDS011;1830;49.000;12.074;2022-09-27T00:13:41;4.27;;;3.70;;
3627;SDS011;1830;49.000;12.074;2022-09-27T00:16:10;3.87;;;3.30;;
3627;SDS011;1830;49.000;12.074;2022-09-27T00:18:37;4.20;;;3.50;;
3627;SDS011;1830;49.000;12.074;2022-09-27T00:21:05;4.27;;;3.30;;
3627;SDS011;1830;49.000;12.074;2022-09-27T00:23:33;10.43;;;3.83;;
3627;SDS011;1830;49.000;12.074;2022-09-27T00:26:00;7.00;;;3.10;;
3627;SDS011;1830;49.000;12.074;2022-09-27T00:28:27;9.50;;;3.83;;
3627;SDS011;1830;49.000;12.074;2022-09-27T00:30:55;13.30;;;3.63;;
3627;SDS011;1830;49.000;12.074;2022-09-27T00:33:23;4.00;;;2.87;;
3627;SDS011;1830;49.000;12.074;2022-09-27T00:35:50;4.17;;;3.20;;
3627;SDS011;1830;49.000;12.074;2022-09-27T00:38:17;5.67;;;3.63;;
3627;SDS011;1830;49.000;12.074;2022-09-27T00:40:44;5.70;;;3.40;;
3627;SDS011;1830;49.000;12.074;2022-09-27T00:43:15;3.70;;;2.90;;
3627;SDS011;1830;49.000;12.074;2022-09-27T00:45:45;4.13;;;3.27;;
3627;SDS011;1830;49.000;12.074;2022-09-27T00:48:15;3.50;;;3.20;;
3627;SDS011;1830;49.000;12.074;2022-09-27T00:50:47;3.90;;;3.50;;
3627;SDS011;1830;49.000;12.074;2022-09-27T00:53:17;4.43;;;3.37;;
3627;SDS011;1830;49.000;12.074;2022-09-27T00:55:49;7.67;;;3.50;;
3627;SDS011;1830;49.000;12.074;2022-09-27T00:58:21;3.80;;;3.03;;
3627;SDS011;1830;49.000;12.074;2022-09-27T01:00:53;8.50;;;3.40;;
3627;SDS011;1830;49.000;12.074;2022-09-27T01:03:25;4.13;;;3.03;;
3627;SDS011;1830;49.000;12.074;2022-09-27T01:06:00;4.00;;;3.07;;
3627;SDS011;1830;49.000;12.074;2022-09-27T01:08:28;4.53;;;3.00;;
3627;SDS011;1830;49.000;12.074;2022-09-27T01:11:00;5.23;;;2.90;;
3627;SDS011;1830;49.000;12.074;2022-09-27T01:13:46;3.80;;;3.10;;
3627;SDS011;1830;49.000;12.074;2022-09-27T01:16:26;6.27;;;3.17;;
3627;SDS011;1830;49.000;12.074;2022-09-27T01:19:03;6.30;;;3.47;;
3627;SDS011;1830;49.000;12.074;2022-09-27T01:21:40;5.30;;;3.47;;
3627;SDS011;1830;49.000;12.074;2022-09-27T01:24:21;6.90;;;3.50;;
3627;SDS011;1830;49.000;12.074;2022-09-27T01:27:32;5.87;;;3.80;;
3627;SDS011;1830;49.000;12.074;2022-09-27T01:30:24;3.83;;;3.30;;
3627;SDS011;1830;49.000;12.074;2022-09-27T01:32:56;8.20;;;3.40;;
3627;SDS011;1830;49.000;12.074;2022-09-27T01:35:35;5.00;;;3.30;;
3627;SDS011;1830;49.000;12.074;2022-09-27T01:38:10;4.60;;;3.07;;
3627;SDS011;1830;49.000;12.074;2022-09-27T01:40:41;5.10;;;3.17;;
3627;SDS011;1830;49.000;12.074;2022-09-27T01:43:16;7.47;;;3.30;;
3627;SDS011;1830;49.000;12.074;2022-09-27T01:45:49;10.87;;;3.23;;
3627;SDS011;1830;49.000;12.074;2022-09-27T01:48:21;5.80;;;3.60;;
3627;SDS011;1830;49.000;12.074;2022-09-27T01:50:49;4.30;;;3.00;;
3627;SDS011;1830;49.000;12.074;2022-09-27T01:53:20;8.63;;;3.30;;
3627;SDS011;1830;49.000;12.074;2022-09-27T01:55:50;5.50;;;3.60;;
3627;SDS011;1830;49.000;12.074;2022-09-27T01:58:21;4.00;;;2.80;;
3627;SDS011;1830;49.000;12.074;2022-09-27T02:00:55;9.10;;;3.47;;
3627;SDS011;1830;49.000;12.074;2022-09-27T02:03:23;4.87;;;3.50;;
3627;SDS011;1830;49.000;12.074;2022-09-27T02:05:54;4.17;;;3.10;;
3627;SDS011;1830;49.000;12.074;2022-09-27T02:08:27;5.33;;;3.20;;
3627;SDS011;1830;49.000;12.074;2022-09-27T02:11:00;3.30;;;3.00;;
3627;SDS011;1830;49.000;12.074;2022-09-27T02:13:33;4.83;;;3.33;;
3627;SDS011;1830;49.000;12.074;2022-09-27T02:16:08;4.30;;;3.40;;
3627;SDS011;1830;49.000;12.074;2022-09-27T02:18:48;3.40;;;3.10;;
3627;SDS011;1830;49.000;12.074;2022-09-27T02:21:21;6.40;;;3.10;;
3627;SDS011;1830;49.000;12.074;2022-09-27T02:23:56;3.57;;;3.27;;
3627;SDS011;1830;49.000;12.074;2022-09-27T02:26:30;3.97;;;3.57;;
3627;SDS011;1830;49.000;12.074;2022-09-27T02:29:03;4.83;;;2.80;;
3627;SDS011;1830;49.000;12.074;2022-09-27T02:31:36;4.83;;;3.00;;
3627;SDS011;1830;49.000;12.074;2022-09-27T02:34:03;11.73;;;3.13;;
3627;SDS011;1830;49.000;12.074;2022-09-27T02:36:32;6.00;;;3.70;;
3627;SDS011;1830;49.000;12.074;2022-09-27T02:38:59;3.20;;;2.47;;
3627;SDS011;1830;49.000;12.074;2022-09-27T02:41:26;3.83;;;2.70;;
3627;SDS011;1830;49.000;12.074;2022-09-27T02:43:53;3.67;;;3.13;;
3627;SDS011;1830;49.000;12.074;2022-09-27T02:46:29;4.77;;;3.00;;
3627;SDS011;1830;49.000;12.074;2022-09-27T02:49:16;4.50;;;2.97;;
3627;SDS011;1830;49.000;12.074;2022-09-27T02:51:57;6.73;;;2.93;;
3627;SDS011;1830;49.000;12.074;2022-09-27T02:54:34;3.73;;;2.67;;
3627;SDS011;1830;49.000;12.074;2022-09-27T02:57:11;4.50;;;2.70;;
3627;SDS011;1830;49.000;12.074;2022-09-27T02:59:49;5.33;;;2.63;;
3627;SDS011;1830;49.000;12.074;2022-09-27T03:02:26;3.97;;;2.30;;
3627;SDS011;1830;49.000;12.074;2022-09-27T03:04:58;3.70;;;3.00;;
3627;SDS011;1830;49.000;12.074;2022-09-27T03:07:28;3.10;;;2.67;;
3627;SDS011;1830;49.000;12.074;2022-09-27T03:10:04;3.90;;;2.63;;
3627;SDS011;1830;49.000;12.074;2022-09-27T03:12:32;8.20;;;3.13;;
3627;SDS011;1830;49.000;12.074;2022-09-27T03:14:59;7.40;;;3.13;;
3627;SDS011;1830;49.000;12.074;2022-09-27T03:17:27;3.90;;;2.70;;
3627;SDS011;1830;49.000;12.074;2022-09-27T03:19:54;3.10;;;2.80;;
3627;SDS011;1830;49.000;12.074;2022-09-27T03:22:21;4.10;;;3.30;;
3627;SDS011;1830;49.000;12.074;2022-09-27T03:24:48;3.23;;;2.60;;
3627;SDS011;1830;49.000;12.074;2022-09-27T03:27:14;3.77;;;2.57;;
3627;SDS011;1830;49.000;12.074;2022-09-27T03:29:42;3.67;;;2.73;;
3627;SDS011;1830;49.000;12.074;2022-09-27T03:32:09;7.17;;;2.67;;
3627;SDS011;1830;49.000;12.074;2022-09-27T03:34:37;5.33;;;2.87;;
3627;SDS011;1830;49.000;12.074;2022-09-27T03:37:04;6.10;;;2.60;;
3627;SDS011;1830;49.000;12.074;2022-09-27T03:39:31;4.53;;;2.77;;
3627;SDS011;1830;49.000;12.074;2022-09-27T03:41:58;3.20;;;2.30;;
3627;SDS011;1830;49.000;12.074;2022-09-27T03:44:24;5.23;;;2.50;;
3627;SDS011;1830;49.000;12.074;2022-09-27T03:46:51;3.30;;;2.30;;
3627;SDS011;1830;49.000;12.074;2022-09-27T03:49:18;3.50;;;2.50;;
3627;SDS011;1830;49.000;12.074;2022-09-27T03:51:46;4.33;;;2.50;;
3627;SDS011;1830;49.000;12.074;2022-09-27T03:54:13;4.80;;;2.37;;
3627;SDS011;1830;49.000;12.074;2022-09-27T03:56:40;3.20;;;2.00;;
3627;SDS011;1830;49.000;12.074;2022-09-27T03:59:07;3.27;;;2.03;;
3627;SDS011;1830;49.000;12.074;2022-09-27T04:01:34;3.50;;;2.23;;
3627;SDS011;1830;49.000;12.074;2022-09-27T04:04:02;4.23;;;2.23;;
3627;SDS011;1830;49.000;12.074;2022-09-27T04:06:40;4.90;;;2.77;;
3627;SDS011;1830;49.000;12.074;2022-09-27T04:09:09;2.83;;;2.50;;
3627;SDS011;1830;49.000;12.074;2022-09-27T04:11:44;2.23;;;2.03;;
3627;SDS011;1830;49.000;12.074;2022-09-27T04:14:13;4.47;;;2.57;;
3627;SDS011;1830;49.000;12.074;2022-09-27T04:16:40;5.27;;;2.60;;
3627;SDS011;1830;49.000;12.074;2022-09-27T04:19:06;3.70;;;2.20;;
3627;SDS011;1830;49.000;12.074;2022-09-27T04:21:35;2.50;;;2.20;;
3627;SDS011;1830;49.000;12.074;2022-09-27T04:24:02;2.57;;;2.10;;
3627;SDS011;1830;49.000;12.074;2022-09-27T04:26:32;2.63;;;2.40;;
3627;SDS011;1830;49.000;12.074;2022-09-27T04:28:58;2.47;;;2.27;;
3627;SDS011;1830;49.000;12.074;2022-09-27T04:31:25;3.03;;;2.50;;
3627;SDS011;1830;49.000;12.074;2022-09-27T04:33:52;4.90;;;2.20;;
3627;SDS011;1830;49.000;12.074;2022-09-27T04:36:21;3.50;;;2.50;;
3627;SDS011;1830;49.000;12.074;2022-09-27T04:38:50;4.07;;;2.27;;
3627;SDS011;1830;49.000;12.074;2022-09-27T04:41:18;5.27;;;2.33;;
3627;SDS011;1830;49.000;12.074;2022-09-27T04:43:47;9.97;;;2.30;;
3627;SDS011;1830;49.000;12.074;2022-09-27T04:46:14;7.37;;;2.80;;
3627;SDS011;1830;49.000;12.074;2022-09-27T04:48:41;2.40;;;2.20;;
3627;SDS011;1830;49.000;12.074;2022-09-27T04:51:08;3.20;;;2.27;;
3627;SDS011;1830;49.000;12.074;2022-09-27T04:53:35;2.57;;;2.30;;
3627;SDS011;1830;49.000;12.074;2022-09-27T04:56:02;3.70;;;3.00;;
3627;SDS011;1830;49.000;12.074;2022-09-27T04:58:30;6.07;;;2.57;;
3627;SDS011;1830;49.000;12.074;2022-09-27T05:01:00;9.40;;;3.30;;
3627;SDS011;1830;49.000;12.074;2022-09-27T05:03:27;2.60;;;2.40;;
3627;SDS011;1830;49.000;12.074;2022-09-27T05:05:54;4.73;;;3.00;;
3627;SDS011;1830;49.000;12.074;2022-09-27T05:08:21;3.40;;;3.10;;
3627;SDS011;1830;49.000;12.074;2022-09-27T05:10:48;4.03;;;3.23;;
3627;SDS011;1830;49.000;12.074;2022-09-27T05:13:15;3.23;;;2.30;;
3627;SDS011;1830;49.000;12.074;2022-09-27T05:15:42;5.70;;;3.23;;
3627;SDS011;1830;49.000;12.074;2022-09-27T05:18:11;4.13;;;3.10;;
3627;SDS011;1830;49.000;12.074;2022-09-27T05:20:38;6.43;;;3.43;;
3627;SDS011;1830;49.000;12.074;2022-09-27T05:23:05;14.17;;;4.93;;
3627;SDS011;1830;49.000;12.074;2022-09-27T05:25:31;13.50;;;4.10;;
3627;SDS011;1830;49.000;12.074;2022-09-27T05:27:58;3.80;;;3.50;;
3627;SDS011;1830;49.000;12.074;2022-09-27T05:30:25;5.77;;;4.27;;
3627;SDS011;1830;49.000;12.074;2022-09-27T05:32:52;6.17;;;3.60;;
3627;SDS011;1830;49.000;12.074;2022-09-27T05:35:20;3.90;;;3.50;;
3627;SDS011;1830;49.000;12.074;2022-09-27T05:37:51;5.43;;;3.80;;
3627;SDS011;1830;49.000;12.074;2022-09-27T05:40:18;7.90;;;3.23;;
3627;SDS011;1830;49.000;12.074;2022-09-27T05:42:48;5.23;;;3.30;;
3627;SDS011;1830;49.000;12.074;2022-09-27T05:45:16;6.83;;;4.20;;
3627;SDS011;1830;49.000;12.074;2022-09-27T05:47:43;4.47;;;3.60;;
3627;SDS011;1830;49.000;12.074;2022-09-27T05:50:18;5.73;;;2.97;;
3627;SDS011;1830;49.000;12.074;2022-09-27T05:52:46;9.80;;;3.20;;
3627;SDS011;1830;49.000;12.074;2022-09-27T05:55:13;3.17;;;2.33;;
3627;SDS011;1830;49.000;12.074;2022-09-27T05:57:40;4.23;;;3.37;;
3627;SDS011;1830;49.000;12.074;2022-09-27T06:00:07;3.30;;;3.00;;
3627;SDS011;1830;49.000;12.074;2022-09-27T06:02:35;2.33;;;2.20;;
3627;SDS011;1830;49.000;12.074;2022-09-27T06:05:02;4.67;;;2.40;;
3627;SDS011;1830;49.000;12.074;2022-09-27T06:07:29;3.10;;;2.57;;
3627;SDS011;1830;49.000;12.074;2022-09-27T06:09:57;4.43;;;2.33;;
3627;SDS011;1830;49.000;12.074;2022-09-27T06:12:24;2.10;;;1.63;;
3627;SDS011;1830;49.000;12.074;2022-09-27T06:14:51;4.40;;;2.00;;
3627;SDS011;1830;49.000;12.074;2022-09-27T06:17:18;1.70;;;1.60;;
3627;SDS011;1830;49.000;12.074;2022-09-27T06:19:44;2.67;;;1.93;;
3627;SDS011;1830;49.000;12.074;2022-09-27T06:22:13;7.10;;;1.53;;
3627;SDS011;1830;49.000;12.074;2022-09-27T06:24:40;1.10;;;1.10;;
3627;SDS011;1830;49.000;12.074;2022-09-27T06:27:08;3.70;;;1.60;;
3627;SDS011;1830;49.000;12.074;2022-09-27T06:29:35;2.90;;;2.10;;
3627;SDS011;1830;49.000;12.074;2022-09-27T06:32:02;3.03;;;2.13;;
3627;SDS011;1830;49.000;12.074;2022-09-27T06:34:29;1.97;;;1.87;;
3627;SDS011;1830;49.000;12.074;2022-09-27T06:36:56;2.70;;;2.13;;
3627;SDS011;1830;49.000;12.074;2022-09-27T06:39:23;2.60;;;1.93;;
3627;SDS011;1830;49.000;12.074;2022-09-27T06:41:52;4.47;;;2.33;;
3627;SDS011;1830;49.000;12.074;2022-09-27T06:44:23;4.13;;;2.90;;
3627;SDS011;1830;49.000;12.074;2022-09-27T06:46:50;5.63;;;2.17;;
3627;SDS011;1830;49.000;12.074;2022-09-27T06:49:19;2.87;;;2.20;;
3627;SDS011;1830;49.000;12.074;2022-09-27T06:51:46;1.70;;;1.60;;
3627;SDS011;1830;49.000;12.074;2022-09-27T06:54:14;1.80;;;1.50;;
3627;SDS011;1830;49.000;12.074;2022-09-27T06:56:40;7.80;;;6.30;;
3627;SDS011;1830;49.000;12.074;2022-09-27T06:59:07;4.17;;;3.60;;
3627;SDS011;1830;49.000;12.074;2022-09-27T07:01:53;4.23;;;2.20;;
3627;SDS011;1830;49.000;12.074;2022-09-27T07:04:20;6.20;;;2.90;;
3627;SDS011;1830;49.000;12.074;2022-09-27T07:06:47;3.83;;;2.60;;
3627;SDS011;1830;49.000;12.074;2022-09-27T07:09:13;5.83;;;2.20;;
3627;SDS011;1830;49.000;12.074;2022-09-27T07:11:41;3.80;;;2.77;;
3627;SDS011;1830;49.000;12.074;2022-09-27T07:14:10;4.93;;;1.90;;
3627;SDS011;1830;49.000;12.074;2022-09-27T07:16:36;5.33;;;3.50;;
3627;SDS011;1830;49.000;12.074;2022-09-27T07:19:04;5.43;;;3.70;;
3627;SDS011;1830;49.000;12.074;2022-09-27T07:21:35;5.57;;;4.50;;
3627;SDS011;1830;49.000;12.074;2022-09-27T07:24:02;4.60;;;2.50;;
3627;SDS011;1830;49.000;12.074;2022-09-27T07:26:29;3.47;;;2.10;;
3627;SDS011;1830;49.000;12.074;2022-09-27T07:28:56;4.27;;;2.30;;
3627;SDS011;1830;49.000;12.074;2022-09-27T07:31:23;3.10;;;2.70;;
3627;SDS011;1830;49.000;12.074;2022-09-27T07:33:50;3.10;;;2.53;;
3627;SDS011;1830;49.000;12.074;2022-09-27T07:36:19;5.60;;;4.13;;
3627;SDS011;1830;49.000;12.074;2022-09-27T07:38:45;4.70;;;2.50;;
3627;SDS011;1830;49.000;12.074;2022-09-27T07:41:12;3.37;;;1.63;;
3627;SDS011;1830;49.000;12.074;2022-09-27T07:43:40;5.73;;;2.07;;
3627;SDS011;1830;49.000;12.074;2022-09-27T07:46:08;9.30;;;3.13;;
3627;SDS011;1830;49.000;12.074;2022-09-27T07:48:35;4.80;;;2.97;;
3627;SDS011;1830;49.000;12.074;2022-09-27T07:51:02;2.40;;;1.33;;
3627;SDS011;1830;49.000;12.074;2022-09-27T07:53:33;2.90;;;2.03;;
3627;SDS011;1830;49.000;12.074;2022-09-27T07:55:59;7.87;;;2.80;;
3627;SDS011;1830;49.000;12.074;2022-09-27T07:58:27;5.73;;;2.20;;
3627;SDS011;1830;49.000;12.074;2022-09-27T08:00:54;2.30;;;2.10;;
3627;SDS011;1830;49.000;12.074;2022-09-27T08:03:26;1.73;;;1.30;;
3627;SDS011;1830;49.000;12.074;2022-09-27T08:05:53;2.20;;;1.57;;
3627;SDS011;1830;49.000;12.074;2022-09-27T08:08:19;2.87;;;1.70;;
3627;SDS011;1830;49.000;12.074;2022-09-27T08:10:48;6.60;;;2.43;;
3627;SDS011;1830;49.000;12.074;2022-09-27T08:13:14;4.03;;;1.60;;
3627;SDS011;1830;49.000;12.074;2022-09-27T08:15:44;6.60;;;1.90;;
3627;SDS011;1830;49.000;12.074;2022-09-27T08:18:12;3.43;;;1.80;;
3627;SDS011;1830;49.000;12.074;2022-09-27T08:20:39;1.83;;;1.60;;
3627;SDS011;1830;49.000;12.074;2022-09-27T08:23:06;1.40;;;1.30;;
3627;SDS011;1830;49.000;12.074;2022-09-27T08:25:32;4.97;;;1.73;;
3627;SDS011;1830;49.000;12.074;2022-09-27T08:28:02;1.03;;;1.00;;
3627;SDS011;1830;49.000;12.074;2022-09-27T08:30:29;3.87;;;1.50;;
3627;SDS011;1830;49.000;12.074;2022-09-27T08:32:57;3.73;;;1.57;;
3627;SDS011;1830;49.000;12.074;2022-09-27T08:35:26;5.77;;;1.40;;
3627;SDS011;1830;49.000;12.074;2022-09-27T08:37:54;3.07;;;1.57;;
3627;SDS011;1830;49.000;12.074;2022-09-27T08:40:24;2.83;;;1.63;;
3627;SDS011;1830;49.000;12.074;2022-09-27T08:42:59;5.70;;;2.10;;
3627;SDS011;1830;49.000;12.074;2022-09-27T08:45:32;3.70;;;2.73;;
3627;SDS011;1830;49.000;12.074;2022-09-27T08:48:04;3.63;;;1.60;;
3627;SDS011;1830;49.000;12.074;2022-09-27T08:50:34;7.63;;;1.90;;
3627;SDS011;1830;49.000;12.074;2022-09-27T08:53:03;4.27;;;1.93;;
3627;SDS011;1830;49.000;12.074;2022-09-27T08:55:37;4.33;;;1.67;;
3627;SDS011;1830;49.000;12.074;2022-09-27T08:58:11;8.27;;;2.00;;
3627;SDS011;1830;49.000;12.074;2022-09-27T09:00:41;4.27;;;1.90;;
3627;SDS011;1830;49.000;12.074;2022-09-27T09:03:10;2.50;;;2.17;;
3627;SDS011;1830;49.000;12.074;2022-09-27T09:05:43;4.30;;;1.87;;
3627;SDS011;1830;49.000;12.074;2022-09-27T09:08:20;1.70;;;1.27;;
3627;SDS011;1830;49.000;12.074;2022-09-27T09:10:58;3.33;;;1.80;;
3627;SDS011;1830;49.000;12.074;2022-09-27T09:13:59;2.90;;;1.90;;
3627;SDS011;1830;49.000;12.074;2022-09-27T09:16:48;4.73;;;1.87;;
3627;SDS011;1830;49.000;12.074;2022-09-27T09:19:27;7.10;;;2.17;;
3627;SDS011;1830;49.000;12.074;2022-09-27T09:22:07;4.87;;;2.47;;
3627;SDS011;1830;49.000;12.074;2022-09-27T09:24:48;8.07;;;2.07;;
3627;SDS011;1830;49.000;12.074;2022-09-27T09:27:27;6.37;;;1.90;;
3627;SDS011;1830;49.000;12.074;2022-09-27T09:30:08;2.00;;;1.47;;
3627;SDS011;1830;49.000;12.074;2022-09-27T09:32:56;9.10;;;5.40;;
3627;SDS011;1830;49.000;12.074;2022-09-27T09:35:35;1.20;;;1.10;;
3627;SDS011;1830;49.000;12.074;2022-09-27T09:38:09;2.10;;;1.20;;
3627;SDS011;1830;49.000;12.074;2022-09-27T09:40:39;2.87;;;1.33;;
3627;SDS011;1830;49.000;12.074;2022-09-27T09:43:09;3.70;;;1.20;;
3627;SDS011;1830;49.000;12.074;2022-09-27T09:45:43;3.50;;;1.30;;
3627;SDS011;1830;49.000;12.074;2022-09-27T09:48:14;4.30;;;1.30;;
3627;SDS011;1830;49.000;12.074;2022-09-27T09:50:47;2.93;;;1.30;;
3627;SDS011;1830;49.000;12.074;2022-09-27T09:53:17;1.80;;;1.20;;
3627;SDS011;1830;49.000;12.074;2022-09-27T09:55:47;1.80;;;1.70;;
3627;SDS011;1830;49.000;12.074;2022-09-27T09:58:19;2.73;;;1.73;;
3627;SDS011;1830;49.000;12.074;2022-09-27T10:00:50;2.70;;;1.27;;
3627;SDS011;1830;49.000;12.074;2022-09-27T10:03:21;3.57;;;1.20;;
3627;SDS011;1830;49.000;12.074;2022-09-27T10:05:48;1.30;;;1.20;;
3627;SDS011;1830;49.000;12.074;2022-09-27T10:08:16;2.70;;;2.10;;
3627;SDS011;1830;49.000;12.074;2022-09-27T10:10:45;1.33;;;1.23;;
3627;SDS011;1830;49.000;12.074;2022-09-27T10:13:13;2.10;;;1.63;;
3627;SDS011;1830;49.000;12.074;2022-09-27T10:15:42;1.93;;;1.73;;
3627;SDS011;1830;49.000;12.074;2022-09-27T10:18:17;1.57;;;1.27;;
3627;SDS011;1830;49.000;12.074;2022-09-27T10:20:46;1.47;;;1.27;;
3627;SDS011;1830;49.000;12.074;2022-09-27T10:23:18;2.07;;;1.87;;
3627;SDS011;1830;49.000;12.074;2022-09-27T10:25:48;1.90;;;1.30;;
3627;SDS011;1830;49.000;12.074;2022-09-27T10:28:32;2.97;;;1.50;;
3627;SDS011;1830;49.000;12.074;2022-09-27T10:31:02;2.43;;;1.37;;
3627;SDS011;1830;49.000;12.074;2022-09-27T10:33:34;1.47;;;1.37;;
3627;SDS011;1830;49.000;12.074;2022-09-27T10:36:06;3.63;;;3.30;;
3627;SDS011;1830;49.000;12.074;2022-09-27T10:38:50;3.93;;;1.30;;
3627;SDS011;1830;49.000;12.074;2022-09-27T10:41:22;1.83;;;1.60;;
3627;SDS011;1830;49.000;12.074;2022-09-27T10:43:51;1.23;;;1.10;;
3627;SDS011;1830;49.000;12.074;2022-09-27T10:46:22;1.80;;;1.70;;
3627;SDS011;1830;49.000;12.074;2022-09-27T10:51:44;2.43;;;1.90;;
3627;SDS011;1830;49.000;12.074;2022-09-27T10:54:18;2.70;;;2.37;;
3627;SDS011;1830;49.000;12.074;2022-09-27T10:56:52;1.20;;;1.10;;
3627;SDS011;1830;49.000;12.074;2022-09-27T10:59:21;1.17;;;1.07;;
3627;SDS011;1830;49.000;12.074;2022-09-27T11:01:48;2.00;;;1.63;;
3627;SDS011;1830;49.000;12.074;2022-09-27T11:04:18;1.93;;;1.53;;
3627;SDS011;1830;49.000;12.074;2022-09-27T11:06:49;3.33;;;2.67;;
3627;SDS011;1830;49.000;12.074;2022-09-27T11:09:17;1.87;;;1.30;;
3627;SDS011;1830;49.000;12.074;2022-09-27T11:11:50;1.97;;;1.10;;
3627;SDS011;1830;49.000;12.074;2022-09-27T11:14:30;1.40;;;1.30;;
3627;SDS011;1830;49.000;12.074;2022-09-27T11:17:05;2.13;;;1.60;;
3627;SDS011;1830;49.000;12.074;2022-09-27T11:19:42;2.30;;;1.37;;
3627;SDS011;1830;49.000;12.074;2022-09-27T11:22:28;2.43;;;1.70;;
3627;SDS011;1830;49.000;12.074;2022-09-27T11:25:09;1.37;;;1.27;;
3627;SDS011;1830;49.000;12.074;2022-09-27T11:27:49;1.43;;;1.33;;
3627;SDS011;1830;49.000;12.074;2022-09-27T11:30:24;1.67;;;1.57;;
3627;SDS011;1830;49.000;12.074;2022-09-27T11:33:14;1.87;;;1.77;;
3627;SDS011;1830;49.000;12.074;2022-09-27T11:36:06;5.03;;;1.70;;
3627;SDS011;1830;49.000;12.074;2022-09-27T11:38:44;1.83;;;1.50;;
3627;SDS011;1830;49.000;12.074;2022-09-27T11:41:26;3.27;;;1.50;;
3627;SDS011;1830;49.000;12.074;2022-09-27T11:44:14;7.63;;;2.13;;
3627;SDS011;1830;49.000;12.074;2022-09-27T11:46:55;1.83;;;1.40;;
3627;SDS011;1830;49.000;12.074;2022-09-27T11:52:43;1.83;;;1.60;;
3627;SDS011;1830;49.000;12.074;2022-09-27T11:55:22;2.70;;;1.40;;
3627;SDS011;1830;49.000;12.074;2022-09-27T11:58:02;2.00;;;1.80;;
3627;SDS011;1830;49.000;12.074;2022-09-27T12:00:39;2.27;;;1.43;;
3627;SDS011;1830;49.000;12.074;2022-09-27T12:03:31;1.27;;;1.10;;
3627;SDS011;1830;49.000;12.074;2022-09-27T12:06:14;1.40;;;1.30;;
3627;SDS011;1830;49.000;12.074;2022-09-27T12:08:47;1.77;;;1.27;;
3627;SDS011;1830;49.000;12.074;2022-09-27T12:11:30;5.27;;;1.40;;
3627;SDS011;1830;49.000;12.074;2022-09-27T12:14:03;1.27;;;1.17;;
3627;SDS011;1830;49.000;12.074;2022-09-27T12:16:33;1.30;;;1.20;;
3627;SDS011;1830;49.000;12.074;2022-09-27T12:19:03;1.07;;;1.07;;
3627;SDS011;1830;49.000;12.074;2022-09-27T12:21:40;2.93;;;1.40;;
3627;SDS011;1830;49.000;12.074;2022-09-27T12:24:14;1.83;;;1.20;;
3627;SDS011;1830;49.000;12.074;2022-09-27T12:26:50;1.47;;;1.30;;
3627;SDS011;1830;49.000;12.074;2022-09-27T12:29:20;1.93;;;1.00;;
3627;SDS011;1830;49.000;12.074;2022-09-27T12:31:52;1.33;;;1.23;;
3627;SDS011;1830;49.000;12.074;2022-09-27T12:34:28;2.27;;;1.10;;
3627;SDS011;1830;49.000;12.074;2022-09-27T12:37:02;1.40;;;1.30;;
3627;SDS011;1830;49.000;12.074;2022-09-27T12:39:36;1.53;;;0.90;;
3627;SDS011;1830;49.000;12.074;2022-09-27T12:42:13;1.70;;;1.20;;
3627;SDS011;1830;49.000;12.074;2022-09-27T12:44:45;1.10;;;1.00;;
3627;SDS011;1830;49.000;12.074;2022-09-27T12:47:14;1.00;;;0.90;;
3627;SDS011;1830;49.000;12.074;2022-09-27T12:50:07;1.17;;;0.93;;
3627;SDS011;1830;49.000;12.074;2022-09-27T12:52:41;1.30;;;1.20;;
3627;SDS011;1830;49.000;12.074;2022-09-27T12:58:19;2.30;;;1.30;;
3627;SDS011;1830;49.000;12.074;2022-09-27T13:01:37;2.77;;;1.17;;
3627;SDS011;1830;49.000;12.074;2022-09-27T13:04:34;5.20;;;1.07;;
3627;SDS011;1830;49.000;12.074;2022-09-27T13:07:20;1.30;;;1.20;;
3627;SDS011;1830;49.000;12.074;2022-09-27T13:10:00;1.20;;;1.10;;
3627;SDS011;1830;49.000;12.074;2022-09-27T13:12:46;1.63;;;1.30;;
3627;SDS011;1830;49.000;12.074;2022-09-27T13:15:20;2.13;;;1.77;;
3627;SDS011;1830;49.000;12.074;2022-09-27T13:17:53;2.83;;;1.20;;
3627;SDS011;1830;49.000;12.074;2022-09-27T13:29:23;1.37;;;1.27;;
3627;SDS011;1830;49.000;12.074;2022-09-27T13:34:48;1.43;;;1.30;;
3627;SDS011;1830;49.000;12.074;2022-09-27T13:37:22;3.80;;;1.17;;
3627;SDS011;1830;49.000;12.074;2022-09-27T13:40:21;1.50;;;1.40;;
3627;SDS011;1830;49.000;12.074;2022-09-27T13:42:54;4.07;;;1.47;;
3627;SDS011;1830;49.000;12.074;2022-09-27T13:45:47;6.53;;;1.10;;
3627;SDS011;1830;49.000;12.074;2022-09-27T13:48:19;1.93;;;1.00;;
3627;SDS011;1830;49.000;12.074;2022-09-27T13:50:52;0.90;;;0.90;;
3627;SDS011;1830;49.000;12.074;2022-09-27T13:53:24;2.70;;;1.40;;
3627;SDS011;1830;49.000;12.074;2022-09-27T13:55:55;1.63;;;1.20;;
3627;SDS011;1830;49.000;12.074;2022-09-27T13:58:29;3.27;;;1.50;;
3627;SDS011;1830;49.000;12.074;2022-09-27T14:01:08;2.40;;;1.27;;
3627;SDS011;1830;49.000;12.074;2022-09-27T14:03:46;1.50;;;1.30;;
3627;SDS011;1830;49.000;12.074;2022-09-27T14:06:15;10.27;;;4.30;;
3627;SDS011;1830;49.000;12.074;2022-09-27T14:08:45;2.20;;;1.53;;
3627;SDS011;1830;49.000;12.074;2022-09-27T14:11:17;4.07;;;2.67;;
3627;SDS011;1830;49.000;12.074;2022-09-27T14:13:48;1.80;;;1.60;;
3627;SDS011;1830;49.000;12.074;2022-09-27T14:16:17;2.57;;;1.90;;
3627;SDS011;1830;49.000;12.074;2022-09-27T14:18:47;5.17;;;2.27;;
3627;SDS011;1830;49.000;12.074;2022-09-27T14:21:20;2.90;;;1.53;;
3627;SDS011;1830;49.000;12.074;2022-09-27T14:23:52;2.70;;;1.70;;
3627;SDS011;1830;49.000;12.074;2022-09-27T14:26:20;2.77;;;1.83;;
3627;SDS011;1830;49.000;12.074;2022-09-27T14:28:49;4.63;;;1.70;;
3627;SDS011;1830;49.000;12.074;2022-09-27T14:31:16;4.57;;;2.63;;
3627;SDS011;1830;49.000;12.074;2022-09-27T14:33:48;2.00;;;1.80;;
3627;SDS011;1830;49.000;12.074;2022-09-27T14:36:23;1.90;;;1.43;;
3627;SDS011;1830;49.000;12.074;2022-09-27T14:39:13;2.03;;;1.70;;
3627;SDS011;1830;49.000;12.074;2022-09-27T14:41:41;6.40;;;2.53;;
3627;SDS011;1830;49.000;12.074;2022-09-27T14:44:11;2.10;;;1.83;;
3627;SDS011;1830;49.000;12.074;2022-09-27T14:46:40;9.93;;;3.73;;
3627;SDS011;1830;49.000;12.074;2022-09-27T14:49:15;10.33;;;4.47;;
3627;SDS011;1830;49.000;12.074;2022-09-27T14:51:49;27.43;;;11.67;;
3627;SDS011;1830;49.000;12.074;2022-09-27T14:54:20;5.80;;;3.40;;
3627;SDS011;1830;49.000;12.074;2022-09-27T14:56:50;7.10;;;4.50;;
3627;SDS011;1830;49.000;12.074;2022-09-27T14:59:21;10.33;;;5.10;;
3627;SDS011;1830;49.000;12.074;2022-09-27T15:01:55;9.93;;;4.20;;
3627;SDS011;1830;49.000;12.074;2022-09-27T15:04:26;8.13;;;5.70;;
3627;SDS011;1830;49.000;12.074;2022-09-27T15:06:55;7.10;;;2.70;;
3627;SDS011;1830;49.000;12.074;2022-09-27T15:09:23;2.77;;;2.50;;
3627;SDS011;1830;49.000;12.074;2022-09-27T15:11:52;6.30;;;2.20;;
3627;SDS011;1830;49.000;12.074;2022-09-27T15:14:23;2.93;;;2.53;;
3627;SDS011;1830;49.000;12.074;2022-09-27T15:16:53;5.23;;;2.80;;
3627;SDS011;1830;49.000;12.074;2022-09-27T15:19:25;4.63;;;2.77;;
3627;SDS011;1830;49.000;12.074;2022-09-27T15:21:54;9.77;;;2.90;;
3627;SDS011;1830;49.000;12.074;2022-09-27T15:27:12;9.23;;;4.07;;
3627;SDS011;1830;49.000;12.074;2022-09-27T15:29:40;6.00;;;3.77;;
3627;SDS011;1830;49.000;12.074;2022-09-27T15:32:07;9.87;;;7.70;;
3627;SDS011;1830;49.000;12.074;2022-09-27T15:34:41;11.43;;;5.83;;
3627;SDS011;1830;49.000;12.074;2022-09-27T15:37:09;11.43;;;8.73;;
3627;SDS011;1830;49.000;12.074;2022-09-27T15:39:51;7.63;;;3.80;;
3627;SDS011;1830;49.000;12.074;2022-09-27T15:42:18;6.90;;;3.57;;
3627;SDS011;1830;49.000;12.074;2022-09-27T15:44:47;7.90;;;3.00;;
3627;SDS011;1830;49.000;12.074;2022-09-27T15:50:32;2.80;;;1.83;;
3627;SDS011;1830;49.000;12.074;2022-09-27T15:53:00;5.63;;;2.80;;
3627;SDS011;1830;49.000;12.074;2022-09-27T15:55:29;10.37;;;2.27;;